createdAt,value
2018-05-24T00:00:08.411Z,16.70
2018-05-24T00:02:39.611Z,15.40
2018-05-24T00:05:07.750Z,16.20
2018-05-24T00:07:35.902Z,16.23
2018-05-24T00:10:04.006Z,17.07
2018-05-24T00:12:32.898Z,17.77
2018-05-24T00:15:01.759Z,15.77
2018-05-24T00:17:29.892Z,17.00
2018-05-24T00:19:58.042Z,15.70
2018-05-24T00:22:51.250Z,16.20
2018-05-24T00:25:19.439Z,18.00
2018-05-24T00:27:47.631Z,17.27
2018-05-24T00:30:15.722Z,18.20
2018-05-24T00:32:53.690Z,16.20
2018-05-24T00:35:21.773Z,16.20
2018-05-24T00:37:49.857Z,15.60
2018-05-24T00:40:18.705Z,15.40
2018-05-24T00:42:46.813Z,14.70
2018-05-24T00:45:14.894Z,15.60
2018-05-24T00:47:43.746Z,16.53
2018-05-24T00:50:11.836Z,15.80
2018-05-24T00:52:39.908Z,15.43
2018-05-24T00:55:25.809Z,14.10
2018-05-24T00:57:54.681Z,14.77
2018-05-24T01:00:22.768Z,83.80
2018-05-24T01:02:50.846Z,83.30
2018-05-24T01:05:19.708Z,17.83
2018-05-24T01:07:47.790Z,16.20
2018-05-24T01:10:15.874Z,16.73
2018-05-24T01:12:44.726Z,17.87
2018-05-24T01:15:12.820Z,17.03
2018-05-24T01:17:40.897Z,17.00
2018-05-24T01:20:08.994Z,18.63
2018-05-24T01:22:43.265Z,20.67
2018-05-24T01:25:11.376Z,17.50
2018-05-24T01:27:40.323Z,17.00
2018-05-24T01:30:08.430Z,16.67
2018-05-24T01:32:37.295Z,16.73
2018-05-24T01:35:05.451Z,13.53
2018-05-24T01:37:49.608Z,14.50
2018-05-24T01:40:17.768Z,14.33
2018-05-24T01:42:49.279Z,15.87
2018-05-24T01:45:18.201Z,15.87
2018-05-24T01:47:46.322Z,13.43
2018-05-24T01:50:15.249Z,16.93
2018-05-24T01:52:43.393Z,16.63
2018-05-24T01:55:12.326Z,19.27
2018-05-24T01:57:40.462Z,18.83
2018-05-24T02:00:09.346Z,17.90
2018-05-24T02:02:39.255Z,18.67
2018-05-24T02:05:07.414Z,18.23
2018-05-24T02:07:35.612Z,17.93
2018-05-24T02:10:03.747Z,17.70
2018-05-24T02:12:32.818Z,17.00
2018-05-24T02:15:01.022Z,16.47
2018-05-24T02:17:29.886Z,16.00
2018-05-24T02:19:58.048Z,16.10
2018-05-24T02:22:26.190Z,15.67
2018-05-24T02:24:55.062Z,17.60
2018-05-24T02:27:23.207Z,17.67
2018-05-24T02:29:51.362Z,18.17
2018-05-24T02:32:20.468Z,18.57
2018-05-24T02:34:48.590Z,19.80
2018-05-24T02:37:17.462Z,18.33
2018-05-24T02:39:45.607Z,18.03
2018-05-24T02:42:14.717Z,17.73
2018-05-24T02:44:42.815Z,16.37
2018-05-24T02:47:10.985Z,16.73
2018-05-24T02:49:39.167Z,17.10
2018-05-24T02:52:26.054Z,17.47
2018-05-24T02:54:54.162Z,16.17
2018-05-24T02:57:22.277Z,17.47
2018-05-24T02:59:50.393Z,16.33
2018-05-24T03:02:28.205Z,16.90
2018-05-24T03:04:57.065Z,18.30
2018-05-24T03:07:25.202Z,17.40
2018-05-24T03:09:53.286Z,16.70
2018-05-24T03:12:22.380Z,16.73
2018-05-24T03:14:50.418Z,16.47
2018-05-24T03:17:18.539Z,17.03
2018-05-24T03:19:46.710Z,16.73
2018-05-24T03:22:18.850Z,17.00
2018-05-24T03:24:46.962Z,17.00
2018-05-24T03:27:15.106Z,16.53
2018-05-24T03:29:43.256Z,17.10
2018-05-24T03:32:11.402Z,18.23
2018-05-24T03:34:40.320Z,17.93
2018-05-24T03:37:08.502Z,16.83
2018-05-24T03:39:36.650Z,16.70
2018-05-24T03:42:13.965Z,16.47
2018-05-24T03:44:42.087Z,17.50
2018-05-24T03:47:10.229Z,17.47
2018-05-24T03:49:38.330Z,16.80
2018-05-24T03:52:07.512Z,16.30
2018-05-24T03:54:36.293Z,16.37
2018-05-24T03:57:04.361Z,16.73
2018-05-24T04:00:12.097Z,17.13
2018-05-24T04:03:03.920Z,17.10
2018-05-24T04:05:32.787Z,21.20
2018-05-24T04:08:00.862Z,21.37
2018-05-24T04:10:28.954Z,21.17
2018-05-24T04:12:57.042Z,20.00
2018-05-24T04:15:25.903Z,20.50
2018-05-24T04:17:53.986Z,22.63
2018-05-24T04:20:22.855Z,20.83
2018-05-24T04:23:03.233Z,23.83
2018-05-24T04:28:23.406Z,23.07
2018-05-24T04:30:53.701Z,22.73
2018-05-24T04:33:23.415Z,23.13
2018-05-24T04:38:32.984Z,22.03
2018-05-24T04:41:22.890Z,24.17
2018-05-24T04:43:58.627Z,28.13
2018-05-24T04:46:27.671Z,27.33
2018-05-24T04:48:55.864Z,27.90
2018-05-24T04:51:24.048Z,27.03
2018-05-24T04:53:52.229Z,28.00
2018-05-24T04:56:20.410Z,26.80
2018-05-24T04:58:48.627Z,27.87
2018-05-24T05:04:21.036Z,27.17
2018-05-24T05:06:49.977Z,25.57
2018-05-24T05:09:18.172Z,26.20
2018-05-24T05:11:47.377Z,29.07
2018-05-24T05:14:16.331Z,32.83
2018-05-24T05:16:47.638Z,33.77
2018-05-24T05:19:15.851Z,32.07
2018-05-24T05:21:44.037Z,30.60
2018-05-24T05:24:13.137Z,26.97
2018-05-24T05:26:41.324Z,27.37
2018-05-24T05:29:09.540Z,26.30
2018-05-24T05:31:48.728Z,26.27
2018-05-24T05:34:16.902Z,27.93
2018-05-24T05:36:45.079Z,25.83
2018-05-24T05:39:13.244Z,27.60
2018-05-24T05:41:41.487Z,27.57
2018-05-24T05:44:09.658Z,25.90
2018-05-24T05:46:37.848Z,29.93
2018-05-24T05:49:06.047Z,27.03
2018-05-24T05:54:13.020Z,27.40
2018-05-24T05:56:41.283Z,27.33
2018-05-24T05:59:09.492Z,27.57
2018-05-24T06:01:37.736Z,28.57
2018-05-24T06:04:05.941Z,29.73
2018-05-24T06:06:34.096Z,28.57
2018-05-24T06:09:02.359Z,32.17
2018-05-24T06:11:30.604Z,31.30
2018-05-24T06:13:58.865Z,29.43
2018-05-24T06:16:26.988Z,28.67
2018-05-24T06:18:55.472Z,31.03
2018-05-24T06:21:48.949Z,28.83
2018-05-24T06:24:26.461Z,28.50
2018-05-24T06:26:55.800Z,26.97
2018-05-24T06:29:25.385Z,30.93
2018-05-24T06:31:59.827Z,29.40
2018-05-24T06:34:28.025Z,29.77
2018-05-24T06:36:56.258Z,28.27
2018-05-24T06:39:25.236Z,28.53
2018-05-24T06:41:57.717Z,28.57
2018-05-24T06:44:25.904Z,29.13
2018-05-24T06:46:54.843Z,27.23
2018-05-24T06:49:23.048Z,27.83
2018-05-24T06:51:57.132Z,29.03
2018-05-24T06:54:51.104Z,29.30
2018-05-24T06:57:19.279Z,25.57
2018-05-24T06:59:47.532Z,26.83
2018-05-24T07:02:18.752Z,27.07
2018-05-24T07:04:47.752Z,26.47
2018-05-24T07:07:16.726Z,25.70
2018-05-24T07:09:45.663Z,26.93
2018-05-24T07:12:26.308Z,27.83
2018-05-24T07:14:55.414Z,27.30
2018-05-24T07:17:23.596Z,27.90
2018-05-24T07:19:51.787Z,30.43
2018-05-24T07:22:20.014Z,27.27
2018-05-24T07:24:48.172Z,27.90
2018-05-24T07:27:16.377Z,27.83
2018-05-24T07:29:44.621Z,28.20
2018-05-24T07:32:14.945Z,30.70
2018-05-24T07:34:43.184Z,31.37
2018-05-24T07:37:11.390Z,33.70
2018-05-24T07:39:40.496Z,30.63
2018-05-24T07:42:08.688Z,29.27
2018-05-24T07:44:36.929Z,28.77
2018-05-24T07:47:05.132Z,29.33
2018-05-24T07:49:33.319Z,28.13
2018-05-24T07:52:04.624Z,26.90
2018-05-24T07:54:33.566Z,27.10
2018-05-24T07:57:01.724Z,28.90
2018-05-24T07:59:29.872Z,29.20
2018-05-24T08:02:03.635Z,28.53
2018-05-24T08:04:31.759Z,29.73
2018-05-24T08:07:00.688Z,28.90
2018-05-24T08:09:29.740Z,27.30
2018-05-24T08:12:07.783Z,25.07
2018-05-24T08:14:35.944Z,28.47
2018-05-24T08:17:04.916Z,27.57
2018-05-24T08:19:33.112Z,27.90
2018-05-24T08:22:02.306Z,27.50
2018-05-24T08:24:30.499Z,27.40
2018-05-24T08:26:58.986Z,28.87
2018-05-24T08:29:27.236Z,27.67
2018-05-24T08:31:56.359Z,27.77
2018-05-24T08:34:24.591Z,28.10
2018-05-24T08:36:55.710Z,26.30
2018-05-24T08:39:23.857Z,28.03
2018-05-24T08:41:59.544Z,28.73
2018-05-24T08:44:28.513Z,27.63
2018-05-24T08:46:56.721Z,24.90
2018-05-24T08:49:25.700Z,25.20
2018-05-24T08:51:55.582Z,24.07
2018-05-24T08:54:23.793Z,20.90
2018-05-24T08:56:52.737Z,22.63
2018-05-24T08:59:20.926Z,22.37
2018-05-24T09:01:53.434Z,21.50
2018-05-24T09:04:22.314Z,19.97
2018-05-24T09:06:50.510Z,18.90
2018-05-24T09:09:19.398Z,18.43
2018-05-24T09:12:02.284Z,16.73
2018-05-24T09:14:30.409Z,16.13
2018-05-24T09:16:58.527Z,16.33
2018-05-24T09:19:26.723Z,14.60
2018-05-24T09:22:13.584Z,14.53
2018-05-24T09:24:41.762Z,13.13
2018-05-24T09:27:09.908Z,12.23
2018-05-24T09:29:38.045Z,11.20
2018-05-24T09:32:20.975Z,13.37
2018-05-24T09:34:50.297Z,12.00
2018-05-24T09:37:19.160Z,11.13
2018-05-24T09:39:48.132Z,10.80
2018-05-24T09:42:40.305Z,10.77
2018-05-24T09:45:08.484Z,11.03
2018-05-24T09:47:36.652Z,11.50
2018-05-24T09:50:05.555Z,9.80
2018-05-24T09:52:33.688Z,11.53
2018-05-24T09:55:01.849Z,11.50
2018-05-24T09:57:29.998Z,11.07
2018-05-24T09:59:58.146Z,10.57
2018-05-24T10:02:31.174Z,12.03
2018-05-24T10:05:00.414Z,10.70
2018-05-24T10:07:29.282Z,10.70
2018-05-24T10:09:57.357Z,11.37
2018-05-24T10:12:25.438Z,9.90
2018-05-24T10:14:54.893Z,10.03
2018-05-24T10:17:22.981Z,10.10
2018-05-24T10:19:51.055Z,9.67
2018-05-24T10:22:19.138Z,10.53
2018-05-24T10:24:47.213Z,9.23
2018-05-24T10:27:15.301Z,8.93
2018-05-24T10:29:44.150Z,8.77
2018-05-24T10:32:16.262Z,8.93
2018-05-24T10:34:45.167Z,8.93
2018-05-24T10:37:13.282Z,8.17
2018-05-24T10:39:41.366Z,7.40
2018-05-24T10:42:17.934Z,7.43
2018-05-24T10:44:46.031Z,8.10
2018-05-24T10:47:14.954Z,7.47
2018-05-24T10:49:43.074Z,7.53
2018-05-24T10:52:11.274Z,9.00
2018-05-24T10:54:40.214Z,6.47
2018-05-24T10:57:08.327Z,6.43
2018-05-24T10:59:37.233Z,6.63
2018-05-24T11:02:08.062Z,6.65
2018-05-24T11:04:36.187Z,6.40
2018-05-24T11:07:04.286Z,5.75
2018-05-24T11:09:32.386Z,5.72
2018-05-24T11:12:05.438Z,5.47
2018-05-24T11:14:33.562Z,8.35
2018-05-24T11:17:01.727Z,5.93
2018-05-24T11:19:29.834Z,6.97
2018-05-24T11:22:02.558Z,6.62
2018-05-24T11:24:31.434Z,6.85
2018-05-24T11:26:59.597Z,6.13
2018-05-24T11:29:27.711Z,5.57
2018-05-24T11:31:57.564Z,5.73
2018-05-24T11:34:26.383Z,5.97
2018-05-24T11:36:54.558Z,6.57
2018-05-24T11:39:23.346Z,6.17
2018-05-24T11:41:51.424Z,8.17
2018-05-24T11:44:19.520Z,6.70
2018-05-24T11:46:47.640Z,6.03
2018-05-24T11:49:15.798Z,5.93
2018-05-24T11:51:52.984Z,5.23
2018-05-24T11:54:21.082Z,5.70
2018-05-24T11:56:49.257Z,5.50
2018-05-24T11:59:17.436Z,5.20
2018-05-24T12:01:45.643Z,4.97
2018-05-24T12:04:13.734Z,5.00
2018-05-24T12:06:42.228Z,4.93
2018-05-24T12:09:10.317Z,4.90
2018-05-24T12:11:38.390Z,4.77
2018-05-24T12:14:06.537Z,5.57
2018-05-24T12:16:34.684Z,5.63
2018-05-24T12:19:02.896Z,6.13
2018-05-24T12:21:32.990Z,5.53
2018-05-24T12:24:01.100Z,6.33
2018-05-24T12:26:29.162Z,6.17
2018-05-24T12:28:57.273Z,9.77
2018-05-24T12:31:25.390Z,7.47
2018-05-24T12:33:53.519Z,6.90
2018-05-24T12:36:22.436Z,8.03
2018-05-24T12:38:50.550Z,8.17
2018-05-24T12:41:18.732Z,8.23
2018-05-24T12:43:46.860Z,7.53
2018-05-24T12:46:15.035Z,8.73
2018-05-24T12:48:43.156Z,8.73
2018-05-24T12:51:12.384Z,10.23
2018-05-24T12:53:41.282Z,8.97
2018-05-24T12:56:09.472Z,9.53
2018-05-24T12:58:38.363Z,10.87
2018-05-24T13:01:16.591Z,12.70
2018-05-24T13:03:44.764Z,13.30
2018-05-24T13:06:12.928Z,12.20
2018-05-24T13:08:41.087Z,11.17
2018-05-24T13:11:14.257Z,7.30
2018-05-24T13:13:42.306Z,8.20
2018-05-24T13:16:10.426Z,8.07
2018-05-24T13:18:38.551Z,7.73
2018-05-24T13:21:06.651Z,8.50
2018-05-24T13:23:34.854Z,8.50
2018-05-24T13:26:03.011Z,8.83
2018-05-24T13:28:31.130Z,9.53
2018-05-24T13:31:00.132Z,8.73
2018-05-24T13:33:28.209Z,8.20
2018-05-24T13:35:56.286Z,8.57
2018-05-24T13:38:25.134Z,7.43
2018-05-24T13:40:53.210Z,7.60
2018-05-24T13:43:21.322Z,8.53
2018-05-24T13:45:50.181Z,8.50
2018-05-24T13:48:18.257Z,8.37
2018-05-24T13:50:46.341Z,9.63
2018-05-24T13:53:14.430Z,9.17
2018-05-24T13:55:43.302Z,8.93
2018-05-24T13:58:11.413Z,9.23
2018-05-24T14:00:49.249Z,8.03
2018-05-24T14:03:17.329Z,6.87
2018-05-24T14:05:45.410Z,6.90
2018-05-24T14:08:13.485Z,6.97
2018-05-24T14:10:46.454Z,6.97
2018-05-24T14:13:14.545Z,7.97
2018-05-24T14:15:42.617Z,6.97
2018-05-24T14:18:10.714Z,7.07
2018-05-24T14:20:39.558Z,7.07
2018-05-24T14:23:07.644Z,6.97
2018-05-24T14:25:35.725Z,6.97
2018-05-24T14:28:03.793Z,6.17
2018-05-24T14:30:33.799Z,6.10
2018-05-24T14:33:01.878Z,5.67
2018-05-24T14:35:29.957Z,4.43
2018-05-24T14:37:58.034Z,5.23
2018-05-24T14:40:26.883Z,4.30
2018-05-24T14:42:54.987Z,4.43
2018-05-24T14:45:23.058Z,6.60
2018-05-24T14:47:57.030Z,7.13
2018-05-24T14:50:25.106Z,6.90
2018-05-24T14:52:53.194Z,6.43
2018-05-24T14:55:21.277Z,9.23
2018-05-24T14:57:49.369Z,10.37
2018-05-24T15:00:18.241Z,11.40
2018-05-24T15:02:46.318Z,10.23
2018-05-24T15:05:14.405Z,11.23
2018-05-24T15:07:43.271Z,11.77
2018-05-24T15:10:11.427Z,12.60
2018-05-24T15:12:40.511Z,13.40
2018-05-24T15:15:08.663Z,13.17
2018-05-24T15:17:36.788Z,13.00
2018-05-24T15:20:04.896Z,13.03
2018-05-24T15:22:33.045Z,13.40
2018-05-24T15:25:01.222Z,13.77
2018-05-24T15:27:29.396Z,12.80
2018-05-24T15:29:57.536Z,14.83
2018-05-24T15:32:25.643Z,15.03
2018-05-24T15:34:54.517Z,16.27
2018-05-24T15:37:23.373Z,15.47
2018-05-24T15:39:51.454Z,17.67
2018-05-24T15:42:26.690Z,15.97
2018-05-24T15:44:54.781Z,18.67
2018-05-24T15:47:22.853Z,19.70
2018-05-24T15:49:51.006Z,18.40
2018-05-24T15:52:19.086Z,19.20
2018-05-24T15:54:47.165Z,20.23
2018-05-24T15:57:15.245Z,20.13
2018-05-24T15:59:43.330Z,20.40
2018-05-24T16:02:13.119Z,20.40
2018-05-24T16:04:41.226Z,20.30
2018-05-24T16:07:09.316Z,19.97
2018-05-24T16:09:37.410Z,19.63
2018-05-24T16:12:10.013Z,18.87
2018-05-24T16:14:38.079Z,19.87
2018-05-24T16:17:06.178Z,19.57
2018-05-24T16:19:35.027Z,23.73
2018-05-24T16:22:04.042Z,19.33
2018-05-24T16:24:32.118Z,19.47
2018-05-24T16:27:00.197Z,19.87
2018-05-24T16:29:29.677Z,18.73
2018-05-24T16:31:57.761Z,20.83
2018-05-24T16:34:25.832Z,20.60
2018-05-24T16:36:53.923Z,22.50
2018-05-24T16:39:22.805Z,21.63
2018-05-24T16:41:55.376Z,19.97
2018-05-24T16:44:24.234Z,20.67
2018-05-24T16:46:52.317Z,21.30
2018-05-24T16:49:20.393Z,20.93
2018-05-24T16:51:57.685Z,21.40
2018-05-24T16:54:25.842Z,21.60
2018-05-24T16:56:54.627Z,22.23
2018-05-24T16:59:22.710Z,22.70
2018-05-24T17:02:13.622Z,21.43
2018-05-24T17:04:41.697Z,21.13
2018-05-24T17:07:09.789Z,20.27
2018-05-24T17:09:38.626Z,21.50
2018-05-24T17:12:23.893Z,21.20
2018-05-24T17:14:51.969Z,21.03
2018-05-24T17:17:20.061Z,21.07
2018-05-24T17:19:48.133Z,21.10
2018-05-24T17:22:17.150Z,19.77
2018-05-24T17:24:46.002Z,20.00
2018-05-24T17:27:14.077Z,18.37
2018-05-24T17:29:42.165Z,17.73
2018-05-24T17:32:19.565Z,16.37
2018-05-24T17:34:47.659Z,16.33
2018-05-24T17:37:16.518Z,16.27
2018-05-24T17:39:44.602Z,14.93
2018-05-24T17:42:48.014Z,12.80
2018-05-24T17:45:16.870Z,14.27
2018-05-24T17:47:44.954Z,11.80
2018-05-24T17:50:13.050Z,11.23
2018-05-24T17:52:46.506Z,9.80
2018-05-24T17:55:14.631Z,9.80
2018-05-24T17:57:42.705Z,8.43
2018-05-24T18:00:10.782Z,10.03
2018-05-24T18:02:47.942Z,9.50
2018-05-24T18:05:16.086Z,9.50
2018-05-24T18:07:44.206Z,9.70
2018-05-24T18:10:12.335Z,9.67
2018-05-24T18:12:40.405Z,8.83
2018-05-24T18:15:08.501Z,9.70
2018-05-24T18:17:37.338Z,9.10
2018-05-24T18:20:05.426Z,9.83
2018-05-24T18:22:35.452Z,8.73
2018-05-24T18:25:03.525Z,9.43
2018-05-24T18:27:31.594Z,9.60
2018-05-24T18:29:59.682Z,8.77
2018-05-24T18:32:34.894Z,9.23
2018-05-24T18:35:02.981Z,8.33
2018-05-24T18:37:31.082Z,9.03
2018-05-24T18:39:59.995Z,7.70
2018-05-24T18:42:50.821Z,8.80
2018-05-24T18:45:18.937Z,8.20
2018-05-24T18:47:47.815Z,7.33
2018-05-24T18:50:16.004Z,8.50
2018-05-24T18:52:45.806Z,7.60
2018-05-24T18:55:13.905Z,7.70
2018-05-24T18:57:42.085Z,8.63
2018-05-24T19:00:10.278Z,8.27
2018-05-24T19:02:39.325Z,8.03
2018-05-24T19:05:17.549Z,8.80
2018-05-24T19:07:47.310Z,9.50
2018-05-24T19:10:15.431Z,8.43
2018-05-24T19:12:58.657Z,7.30
2018-05-24T19:15:26.729Z,7.63
2018-05-24T19:17:54.813Z,7.73
2018-05-24T19:20:22.885Z,7.93
2018-05-24T19:22:50.981Z,8.53
2018-05-24T19:25:19.054Z,11.13
2018-05-24T19:27:47.138Z,13.57
2018-05-24T19:30:15.206Z,8.60
2018-05-24T19:32:47.694Z,12.57
2018-05-24T19:35:15.778Z,8.30
2018-05-24T19:37:43.861Z,8.77
2018-05-24T19:40:12.701Z,7.70
2018-05-24T19:42:40.789Z,9.30
2018-05-24T19:45:08.877Z,10.47
2018-05-24T19:47:36.953Z,9.07
2018-05-24T19:50:05.026Z,8.43
2018-05-24T19:52:33.118Z,8.70
2018-05-24T19:55:01.205Z,8.63
2018-05-24T19:57:29.298Z,7.80
2018-05-24T19:59:57.387Z,11.57
2018-05-24T20:02:34.078Z,7.57
2018-05-24T20:05:02.154Z,8.27
2018-05-24T20:07:30.225Z,9.03
2018-05-24T20:09:58.305Z,14.80
2018-05-24T20:12:27.169Z,8.13
2018-05-24T20:14:55.237Z,9.47
2018-05-24T20:17:23.314Z,8.93
2018-05-24T20:19:51.385Z,9.33
2018-05-24T20:22:24.685Z,8.60
2018-05-24T20:24:52.758Z,8.33
2018-05-24T20:27:20.853Z,8.90
2018-05-24T20:29:49.690Z,8.83
2018-05-24T20:32:21.268Z,8.53
2018-05-24T20:34:49.333Z,9.30
2018-05-24T20:37:17.406Z,9.00
2018-05-24T20:39:45.514Z,9.37
2018-05-24T20:42:17.437Z,9.27
2018-05-24T20:44:45.517Z,8.50
2018-05-24T20:47:13.590Z,13.43
2018-05-24T20:49:41.674Z,10.40
2018-05-24T20:52:11.485Z,11.67
2018-05-24T20:54:40.367Z,8.80
2018-05-24T20:57:08.438Z,9.60
2018-05-24T20:59:36.514Z,8.33
2018-05-24T21:02:04.581Z,10.37
2018-05-24T21:04:32.666Z,9.57
2018-05-24T21:07:01.553Z,9.03
2018-05-24T21:09:29.602Z,8.53
2018-05-24T21:11:57.670Z,8.90
2018-05-24T21:14:25.756Z,9.83
2018-05-24T21:16:53.825Z,11.37
2018-05-24T21:19:21.921Z,9.27
2018-05-24T21:21:50.976Z,9.47
2018-05-24T21:24:19.051Z,10.40
2018-05-24T21:26:47.138Z,11.93
2018-05-24T21:29:15.244Z,10.00
2018-05-24T21:31:44.278Z,10.03
2018-05-24T21:34:12.362Z,10.90
2018-05-24T21:36:40.442Z,12.93
2018-05-24T21:39:08.530Z,8.97
2018-05-24T21:41:38.317Z,10.93
2018-05-24T21:44:06.390Z,9.47
2018-05-24T21:46:34.469Z,16.07
2018-05-24T21:49:02.547Z,9.97
2018-05-24T21:51:31.406Z,8.57
2018-05-24T21:53:59.489Z,10.17
2018-05-24T21:56:27.561Z,5.90
2018-05-24T21:58:55.629Z,6.37
2018-05-24T22:01:23.710Z,6.90
2018-05-24T22:03:51.781Z,7.20
2018-05-24T22:06:19.854Z,8.80
2018-05-24T22:08:47.930Z,7.87
2018-05-24T22:11:16.006Z,10.07
2018-05-24T22:13:44.082Z,11.80
2018-05-24T22:16:12.934Z,9.43
2018-05-24T22:18:41.002Z,9.73
2018-05-24T22:21:16.258Z,9.13
2018-05-24T22:23:44.325Z,12.93
2018-05-24T22:26:12.418Z,10.43
2018-05-24T22:28:40.537Z,9.60
2018-05-24T22:31:23.297Z,10.20
2018-05-24T22:33:51.438Z,9.87
2018-05-24T22:36:19.539Z,13.27
2018-05-24T22:38:47.696Z,9.17
2018-05-24T22:41:15.792Z,9.37
2018-05-24T22:43:43.944Z,9.80
2018-05-24T22:46:12.056Z,10.80
2018-05-24T22:48:40.978Z,10.07
2018-05-24T22:51:31.338Z,9.43
2018-05-24T22:54:00.225Z,11.63
2018-05-24T22:56:29.154Z,9.27
2018-05-24T22:58:57.286Z,9.77
2018-05-24T23:02:16.637Z,8.90
2018-05-24T23:04:44.802Z,8.97
2018-05-24T23:07:12.946Z,9.47
2018-05-24T23:09:41.097Z,9.00
2018-05-24T23:12:26.534Z,8.67
2018-05-24T23:14:54.670Z,8.87
2018-05-24T23:17:22.890Z,10.53
2018-05-24T23:19:51.029Z,8.47
2018-05-24T23:22:36.912Z,9.07
2018-05-24T23:25:05.001Z,15.50
2018-05-24T23:27:33.902Z,12.70
2018-05-24T23:30:01.990Z,9.73
2018-05-24T23:32:30.053Z,9.63
2018-05-24T23:34:58.141Z,12.00
2018-05-24T23:37:27.341Z,9.63
2018-05-24T23:39:56.201Z,9.00
2018-05-24T23:42:24.274Z,17.07
2018-05-24T23:44:52.358Z,10.23
2018-05-24T23:47:20.425Z,9.57
2018-05-24T23:49:48.509Z,11.30
2018-05-24T23:52:16.585Z,14.87
2018-05-24T23:54:44.677Z,16.03
2018-05-24T23:57:12.753Z,10.43
2018-05-24T23:59:40.860Z,14.53
